sensor_id;sensor_type;location;lat;lon;timestamp;P1;durP1;ratioP1;P2;durP2;ratioP2
76204;SDS011;64986;55.672;37.628;2023-02-01T00:02:17;17.13;;;9.02;;
76204;SDS011;64986;55.672;37.628;2023-02-01T00:04:42;16.23;;;8.50;;
76204;SDS011;64986;55.672;37.628;2023-02-01T00:07:08;17.75;;;8.82;;
76204;SDS011;64986;55.672;37.628;2023-02-01T00:09:34;8.25;;;4.30;;
76204;SDS011;64986;55.672;37.628;2023-02-01T00:11:59;14.18;;;7.68;;
76204;SDS011;64986;55.672;37.628;2023-02-01T00:14:27;16.15;;;8.68;;
76204;SDS011;64986;55.672;37.628;2023-02-01T00:16:52;15.13;;;8.90;;
76204;SDS011;64986;55.672;37.628;2023-02-01T00:19:18;15.57;;;9.05;;
76204;SDS011;64986;55.672;37.628;2023-02-01T00:21:44;13.85;;;8.32;;
76204;SDS011;64986;55.672;37.628;2023-02-01T00:24:10;14.55;;;7.90;;
76204;SDS011;64986;55.672;37.628;2023-02-01T00:26:38;17.95;;;8.18;;
76204;SDS011;64986;55.672;37.628;2023-02-01T00:29:08;13.57;;;6.03;;
76204;SDS011;64986;55.672;37.628;2023-02-01T00:31:37;12.95;;;7.18;;
76204;SDS011;64986;55.672;37.628;2023-02-01T00:34:03;11.57;;;6.68;;
76204;SDS011;64986;55.672;37.628;2023-02-01T00:36:29;12.07;;;6.50;;
76204;SDS011;64986;55.672;37.628;2023-02-01T00:38:55;16.40;;;8.98;;
76204;SDS011;64986;55.672;37.628;2023-02-01T00:41:20;15.95;;;7.40;;
76204;SDS011;64986;55.672;37.628;2023-02-01T00:43:47;12.93;;;6.65;;
76204;SDS011;64986;55.672;37.628;2023-02-01T00:46:14;11.07;;;5.03;;
76204;SDS011;64986;55.672;37.628;2023-02-01T00:48:40;12.10;;;6.43;;
76204;SDS011;64986;55.672;37.628;2023-02-01T00:51:07;12.10;;;6.68;;
76204;SDS011;64986;55.672;37.628;2023-02-01T00:53:37;14.88;;;7.88;;
76204;SDS011;64986;55.672;37.628;2023-02-01T00:56:03;13.82;;;7.10;;
76204;SDS011;64986;55.672;37.628;2023-02-01T00:58:30;10.85;;;6.07;;
76204;SDS011;64986;55.672;37.628;2023-02-01T01:03:28;15.95;;;7.43;;
76204;SDS011;64986;55.672;37.628;2023-02-01T01:05:58;13.48;;;7.72;;
76204;SDS011;64986;55.672;37.628;2023-02-01T01:08:24;11.52;;;7.50;;
76204;SDS011;64986;55.672;37.628;2023-02-01T01:10:50;13.68;;;7.07;;
76204;SDS011;64986;55.672;37.628;2023-02-01T01:13:15;10.90;;;6.47;;
76204;SDS011;64986;55.672;37.628;2023-02-01T01:15:41;13.52;;;6.65;;
76204;SDS011;64986;55.672;37.628;2023-02-01T01:18:07;14.38;;;7.82;;
76204;SDS011;64986;55.672;37.628;2023-02-01T01:20:34;14.60;;;7.88;;
76204;SDS011;64986;55.672;37.628;2023-02-01T01:23:01;13.55;;;7.53;;
76204;SDS011;64986;55.672;37.628;2023-02-01T01:25:27;12.27;;;6.47;;
76204;SDS011;64986;55.672;37.628;2023-02-01T01:27:52;15.18;;;7.10;;
76204;SDS011;64986;55.672;37.628;2023-02-01T01:30:18;13.73;;;7.40;;
76204;SDS011;64986;55.672;37.628;2023-02-01T01:32:44;17.15;;;8.90;;
76204;SDS011;64986;55.672;37.628;2023-02-01T01:35:09;13.13;;;6.90;;
76204;SDS011;64986;55.672;37.628;2023-02-01T01:37:36;12.23;;;6.40;;
76204;SDS011;64986;55.672;37.628;2023-02-01T01:40:02;17.23;;;8.18;;
76204;SDS011;64986;55.672;37.628;2023-02-01T01:42:29;13.82;;;7.10;;
76204;SDS011;64986;55.672;37.628;2023-02-01T01:47:28;12.40;;;6.93;;
76204;SDS011;64986;55.672;37.628;2023-02-01T01:49:58;12.00;;;6.97;;
76204;SDS011;64986;55.672;37.628;2023-02-01T01:52:25;14.27;;;6.72;;
76204;SDS011;64986;55.672;37.628;2023-02-01T01:54:51;10.85;;;6.25;;
76204;SDS011;64986;55.672;37.628;2023-02-01T01:57:23;17.50;;;7.63;;
76204;SDS011;64986;55.672;37.628;2023-02-01T01:59:57;12.30;;;7.60;;
76204;SDS011;64986;55.672;37.628;2023-02-01T02:02:32;12.77;;;7.15;;
76204;SDS011;64986;55.672;37.628;2023-02-01T02:04:58;15.50;;;7.93;;
76204;SDS011;64986;55.672;37.628;2023-02-01T02:07:25;14.23;;;7.22;;
76204;SDS011;64986;55.672;37.628;2023-02-01T02:09:53;11.93;;;6.57;;
76204;SDS011;64986;55.672;37.628;2023-02-01T02:12:19;12.00;;;6.10;;
76204;SDS011;64986;55.672;37.628;2023-02-01T02:14:45;11.65;;;6.60;;
76204;SDS011;64986;55.672;37.628;2023-02-01T02:36:37;15.52;;;7.00;;
76204;SDS011;64986;55.672;37.628;2023-02-01T02:39:48;18.02;;;8.10;;
76204;SDS011;64986;55.672;37.628;2023-02-01T02:42:02;14.38;;;7.65;;
76204;SDS011;64986;55.672;37.628;2023-02-01T02:45:02;14.48;;;6.97;;
76204;SDS011;64986;55.672;37.628;2023-02-01T02:47:55;14.88;;;8.20;;
76204;SDS011;64986;55.672;37.628;2023-02-01T02:50:32;15.45;;;8.05;;
76204;SDS011;64986;55.672;37.628;2023-02-01T02:53:25;17.85;;;8.90;;
76204;SDS011;64986;55.672;37.628;2023-02-01T02:56:15;12.98;;;7.38;;
76204;SDS011;64986;55.672;37.628;2023-02-01T02:59:02;14.95;;;7.70;;
76204;SDS011;64986;55.672;37.628;2023-02-01T03:01:47;16.52;;;7.78;;
76204;SDS011;64986;55.672;37.628;2023-02-01T03:04:33;16.70;;;8.02;;
76204;SDS011;64986;55.672;37.628;2023-02-01T03:07:09;13.82;;;6.78;;
76204;SDS011;64986;55.672;37.628;2023-02-01T03:09:39;13.85;;;8.02;;
76204;SDS011;64986;55.672;37.628;2023-02-01T03:12:09;24.33;;;9.23;;
76204;SDS011;64986;55.672;37.628;2023-02-01T03:15:00;15.65;;;8.45;;
76204;SDS011;64986;55.672;37.628;2023-02-01T03:17:35;12.38;;;6.93;;
76204;SDS011;64986;55.672;37.628;2023-02-01T03:20:07;16.77;;;8.57;;
76204;SDS011;64986;55.672;37.628;2023-02-01T03:22:35;17.75;;;7.97;;
76204;SDS011;64986;55.672;37.628;2023-02-01T03:25:05;13.02;;;6.82;;
76204;SDS011;64986;55.672;37.628;2023-02-01T03:28:09;11.30;;;6.40;;
76204;SDS011;64986;55.672;37.628;2023-02-01T03:30:34;12.57;;;6.63;;
76204;SDS011;64986;55.672;37.628;2023-02-01T03:33:03;11.07;;;5.78;;
76204;SDS011;64986;55.672;37.628;2023-02-01T03:41:30;18.42;;;8.55;;
76204;SDS011;64986;55.672;37.628;2023-02-01T03:47:03;16.27;;;9.10;;
76204;SDS011;64986;55.672;37.628;2023-02-01T03:49:35;16.88;;;9.18;;
76204;SDS011;64986;55.672;37.628;2023-02-01T03:52:03;16.55;;;8.57;;
76204;SDS011;64986;55.672;37.628;2023-02-01T03:54:32;18.77;;;9.70;;
76204;SDS011;64986;55.672;37.628;2023-02-01T03:56:59;18.27;;;9.82;;
76204;SDS011;64986;55.672;37.628;2023-02-01T03:59:30;14.25;;;7.75;;
76204;SDS011;64986;55.672;37.628;2023-02-01T04:01:55;19.70;;;8.00;;
76204;SDS011;64986;55.672;37.628;2023-02-01T04:04:21;18.13;;;9.27;;
76204;SDS011;64986;55.672;37.628;2023-02-01T04:06:47;14.85;;;9.13;;
76204;SDS011;64986;55.672;37.628;2023-02-01T04:09:13;16.63;;;7.72;;
76204;SDS011;64986;55.672;37.628;2023-02-01T04:11:39;15.55;;;8.35;;
76204;SDS011;64986;55.672;37.628;2023-02-01T04:14:05;17.58;;;8.57;;
76204;SDS011;64986;55.672;37.628;2023-02-01T04:16:31;16.83;;;8.77;;
76204;SDS011;64986;55.672;37.628;2023-02-01T04:18:57;18.10;;;8.98;;
76204;SDS011;64986;55.672;37.628;2023-02-01T04:21:23;22.13;;;9.95;;
76204;SDS011;64986;55.672;37.628;2023-02-01T04:23:50;15.13;;;7.45;;
76204;SDS011;64986;55.672;37.628;2023-02-01T04:26:15;15.43;;;8.27;;
76204;SDS011;64986;55.672;37.628;2023-02-01T04:28:41;22.15;;;10.18;;
76204;SDS011;64986;55.672;37.628;2023-02-01T04:31:07;15.48;;;6.65;;
76204;SDS011;64986;55.672;37.628;2023-02-01T04:33:32;15.55;;;8.60;;
76204;SDS011;64986;55.672;37.628;2023-02-01T04:35:58;13.32;;;5.82;;
76204;SDS011;64986;55.672;37.628;2023-02-01T04:38:23;15.10;;;8.88;;
76204;SDS011;64986;55.672;37.628;2023-02-01T04:40:49;20.90;;;9.32;;
76204;SDS011;64986;55.672;37.628;2023-02-01T04:43:15;20.08;;;11.05;;
76204;SDS011;64986;55.672;37.628;2023-02-01T04:45:45;18.88;;;9.27;;
76204;SDS011;64986;55.672;37.628;2023-02-01T04:48:11;19.00;;;9.55;;
76204;SDS011;64986;55.672;37.628;2023-02-01T04:50:37;12.88;;;5.97;;
76204;SDS011;64986;55.672;37.628;2023-02-01T04:53:03;15.70;;;8.45;;
76204;SDS011;64986;55.672;37.628;2023-02-01T04:55:28;16.95;;;7.95;;
76204;SDS011;64986;55.672;37.628;2023-02-01T04:57:54;15.48;;;8.40;;
76204;SDS011;64986;55.672;37.628;2023-02-01T05:00:20;17.55;;;9.88;;
76204;SDS011;64986;55.672;37.628;2023-02-01T05:02:46;18.27;;;9.13;;
76204;SDS011;64986;55.672;37.628;2023-02-01T05:05:11;22.88;;;11.10;;
76204;SDS011;64986;55.672;37.628;2023-02-01T05:07:37;15.35;;;8.18;;
76204;SDS011;64986;55.672;37.628;2023-02-01T05:10:02;21.55;;;10.35;;
76204;SDS011;64986;55.672;37.628;2023-02-01T05:12:28;15.75;;;9.45;;
76204;SDS011;64986;55.672;37.628;2023-02-01T05:15:12;24.98;;;11.65;;
76204;SDS011;64986;55.672;37.628;2023-02-01T05:17:38;23.23;;;10.20;;
76204;SDS011;64986;55.672;37.628;2023-02-01T05:20:05;20.25;;;9.40;;
76204;SDS011;64986;55.672;37.628;2023-02-01T05:22:32;23.50;;;11.68;;
76204;SDS011;64986;55.672;37.628;2023-02-01T05:24:57;20.38;;;9.05;;
76204;SDS011;64986;55.672;37.628;2023-02-01T05:27:23;23.77;;;12.30;;
76204;SDS011;64986;55.672;37.628;2023-02-01T05:29:48;25.25;;;12.05;;
76204;SDS011;64986;55.672;37.628;2023-02-01T05:32:14;23.65;;;11.80;;
76204;SDS011;64986;55.672;37.628;2023-02-01T05:34:39;21.42;;;10.52;;
76204;SDS011;64986;55.672;37.628;2023-02-01T05:37:05;20.23;;;8.73;;
76204;SDS011;64986;55.672;37.628;2023-02-01T05:39:30;27.77;;;11.50;;
76204;SDS011;64986;55.672;37.628;2023-02-01T05:41:56;21.02;;;10.48;;
76204;SDS011;64986;55.672;37.628;2023-02-01T05:44:21;20.58;;;10.43;;
76204;SDS011;64986;55.672;37.628;2023-02-01T05:46:47;20.08;;;9.65;;
76204;SDS011;64986;55.672;37.628;2023-02-01T05:49:12;28.15;;;11.57;;
76204;SDS011;64986;55.672;37.628;2023-02-01T05:51:38;25.63;;;13.05;;
76204;SDS011;64986;55.672;37.628;2023-02-01T05:54:03;23.23;;;11.02;;
76204;SDS011;64986;55.672;37.628;2023-02-01T05:56:29;22.88;;;11.55;;
76204;SDS011;64986;55.672;37.628;2023-02-01T05:58:54;19.63;;;10.23;;
76204;SDS011;64986;55.672;37.628;2023-02-01T06:01:20;23.17;;;11.35;;
76204;SDS011;64986;55.672;37.628;2023-02-01T06:03:45;22.77;;;10.48;;
76204;SDS011;64986;55.672;37.628;2023-02-01T06:06:11;21.58;;;10.65;;
76204;SDS011;64986;55.672;37.628;2023-02-01T06:08:36;21.30;;;10.05;;
76204;SDS011;64986;55.672;37.628;2023-02-01T06:11:05;21.65;;;11.05;;
76204;SDS011;64986;55.672;37.628;2023-02-01T06:13:31;18.48;;;9.10;;
76204;SDS011;64986;55.672;37.628;2023-02-01T06:15:57;20.23;;;10.45;;
76204;SDS011;64986;55.672;37.628;2023-02-01T06:18:23;21.92;;;11.05;;
76204;SDS011;64986;55.672;37.628;2023-02-01T06:20:55;23.88;;;10.77;;
76204;SDS011;64986;55.672;37.628;2023-02-01T06:23:22;19.75;;;10.15;;
76204;SDS011;64986;55.672;37.628;2023-02-01T06:25:52;23.92;;;10.35;;
76204;SDS011;64986;55.672;37.628;2023-02-01T06:28:23;23.83;;;10.63;;
76204;SDS011;64986;55.672;37.628;2023-02-01T06:30:49;22.73;;;11.90;;
76204;SDS011;64986;55.672;37.628;2023-02-01T06:33:14;21.48;;;11.13;;
76204;SDS011;64986;55.672;37.628;2023-02-01T06:35:41;23.90;;;10.68;;
76204;SDS011;64986;55.672;37.628;2023-02-01T06:38:09;24.48;;;12.38;;
76204;SDS011;64986;55.672;37.628;2023-02-01T06:40:37;23.48;;;11.40;;
76204;SDS011;64986;55.672;37.628;2023-02-01T06:43:03;21.27;;;10.80;;
76204;SDS011;64986;55.672;37.628;2023-02-01T06:45:29;20.80;;;10.45;;
76204;SDS011;64986;55.672;37.628;2023-02-01T06:47:54;20.13;;;10.30;;
76204;SDS011;64986;55.672;37.628;2023-02-01T06:50:20;22.63;;;10.88;;
76204;SDS011;64986;55.672;37.628;2023-02-01T06:52:46;20.15;;;10.88;;
76204;SDS011;64986;55.672;37.628;2023-02-01T06:55:11;23.83;;;12.43;;
76204;SDS011;64986;55.672;37.628;2023-02-01T06:57:38;22.77;;;9.35;;
76204;SDS011;64986;55.672;37.628;2023-02-01T07:00:03;21.30;;;9.82;;
76204;SDS011;64986;55.672;37.628;2023-02-01T07:02:30;23.13;;;11.30;;
76204;SDS011;64986;55.672;37.628;2023-02-01T07:04:55;22.20;;;10.65;;
76204;SDS011;64986;55.672;37.628;2023-02-01T07:07:21;23.20;;;10.60;;
76204;SDS011;64986;55.672;37.628;2023-02-01T07:09:48;30.13;;;12.10;;
76204;SDS011;64986;55.672;37.628;2023-02-01T07:12:14;20.67;;;10.77;;
76204;SDS011;64986;55.672;37.628;2023-02-01T07:14:40;23.20;;;10.57;;
76204;SDS011;64986;55.672;37.628;2023-02-01T07:17:05;20.50;;;10.32;;
76204;SDS011;64986;55.672;37.628;2023-02-01T07:19:31;25.80;;;11.48;;
76204;SDS011;64986;55.672;37.628;2023-02-01T07:21:56;26.42;;;12.43;;
76204;SDS011;64986;55.672;37.628;2023-02-01T07:24:22;34.17;;;13.95;;
76204;SDS011;64986;55.672;37.628;2023-02-01T07:26:47;21.33;;;10.18;;
76204;SDS011;64986;55.672;37.628;2023-02-01T07:29:13;21.67;;;8.95;;
76204;SDS011;64986;55.672;37.628;2023-02-01T07:31:39;18.40;;;8.38;;
76204;SDS011;64986;55.672;37.628;2023-02-01T07:34:04;20.50;;;11.40;;
76204;SDS011;64986;55.672;37.628;2023-02-01T07:36:30;27.38;;;11.10;;
76204;SDS011;64986;55.672;37.628;2023-02-01T07:38:56;22.83;;;11.57;;
76204;SDS011;64986;55.672;37.628;2023-02-01T07:41:22;27.90;;;12.20;;
76204;SDS011;64986;55.672;37.628;2023-02-01T07:43:48;20.13;;;11.00;;
76204;SDS011;64986;55.672;37.628;2023-02-01T07:46:15;17.75;;;7.20;;
76204;SDS011;64986;55.672;37.628;2023-02-01T07:48:41;20.98;;;11.25;;
76204;SDS011;64986;55.672;37.628;2023-02-01T07:51:11;23.58;;;11.10;;
76204;SDS011;64986;55.672;37.628;2023-02-01T07:53:38;19.02;;;9.60;;
76204;SDS011;64986;55.672;37.628;2023-02-01T07:56:09;26.52;;;10.52;;
76204;SDS011;64986;55.672;37.628;2023-02-01T07:58:36;21.48;;;9.57;;
76204;SDS011;64986;55.672;37.628;2023-02-01T08:01:02;21.15;;;10.30;;
76204;SDS011;64986;55.672;37.628;2023-02-01T08:03:50;22.25;;;9.75;;
76204;SDS011;64986;55.672;37.628;2023-02-01T08:06:17;23.75;;;12.02;;
76204;SDS011;64986;55.672;37.628;2023-02-01T08:08:44;21.52;;;9.68;;
76204;SDS011;64986;55.672;37.628;2023-02-01T08:11:12;20.58;;;10.90;;
76204;SDS011;64986;55.672;37.628;2023-02-01T08:13:38;19.90;;;10.93;;
76204;SDS011;64986;55.672;37.628;2023-02-01T08:16:05;20.55;;;10.57;;
76204;SDS011;64986;55.672;37.628;2023-02-01T08:18:32;20.02;;;10.18;;
76204;SDS011;64986;55.672;37.628;2023-02-01T08:21:02;23.42;;;11.82;;
76204;SDS011;64986;55.672;37.628;2023-02-01T08:23:29;21.65;;;11.82;;
76204;SDS011;64986;55.672;37.628;2023-02-01T08:25:55;19.58;;;11.20;;
76204;SDS011;64986;55.672;37.628;2023-02-01T08:28:29;23.73;;;12.20;;
76204;SDS011;64986;55.672;37.628;2023-02-01T08:30:55;26.52;;;14.52;;
76204;SDS011;64986;55.672;37.628;2023-02-01T08:33:20;24.60;;;12.95;;
76204;SDS011;64986;55.672;37.628;2023-02-01T08:35:47;23.98;;;12.70;;
76204;SDS011;64986;55.672;37.628;2023-02-01T08:38:13;24.17;;;13.05;;
76204;SDS011;64986;55.672;37.628;2023-02-01T08:40:38;25.00;;;12.70;;
76204;SDS011;64986;55.672;37.628;2023-02-01T08:43:06;23.70;;;12.43;;
76204;SDS011;64986;55.672;37.628;2023-02-01T08:45:32;20.77;;;11.45;;
76204;SDS011;64986;55.672;37.628;2023-02-01T08:47:58;22.60;;;11.95;;
76204;SDS011;64986;55.672;37.628;2023-02-01T08:50:24;20.38;;;11.57;;
76204;SDS011;64986;55.672;37.628;2023-02-01T08:52:51;31.65;;;11.73;;
76204;SDS011;64986;55.672;37.628;2023-02-01T08:55:18;23.83;;;12.00;;
76204;SDS011;64986;55.672;37.628;2023-02-01T08:57:44;24.75;;;13.07;;
76204;SDS011;64986;55.672;37.628;2023-02-01T09:00:14;32.53;;;13.63;;
76204;SDS011;64986;55.672;37.628;2023-02-01T09:02:41;34.83;;;14.25;;
76204;SDS011;64986;55.672;37.628;2023-02-01T09:05:07;34.25;;;14.50;;
76204;SDS011;64986;55.672;37.628;2023-02-01T09:07:33;26.20;;;12.70;;
76204;SDS011;64986;55.672;37.628;2023-02-01T09:09:59;28.08;;;11.63;;
76204;SDS011;64986;55.672;37.628;2023-02-01T09:12:28;27.60;;;13.40;;
76204;SDS011;64986;55.672;37.628;2023-02-01T09:14:55;23.77;;;11.30;;
76204;SDS011;64986;55.672;37.628;2023-02-01T09:17:22;29.13;;;12.07;;
76204;SDS011;64986;55.672;37.628;2023-02-01T09:19:47;24.30;;;11.35;;
76204;SDS011;64986;55.672;37.628;2023-02-01T09:22:14;27.48;;;12.05;;
76204;SDS011;64986;55.672;37.628;2023-02-01T09:24:41;26.70;;;12.95;;
76204;SDS011;64986;55.672;37.628;2023-02-01T09:27:06;22.67;;;11.45;;
76204;SDS011;64986;55.672;37.628;2023-02-01T09:29:32;33.55;;;12.95;;
76204;SDS011;64986;55.672;37.628;2023-02-01T09:31:57;26.17;;;12.13;;
76204;SDS011;64986;55.672;37.628;2023-02-01T09:34:23;23.75;;;13.55;;
76204;SDS011;64986;55.672;37.628;2023-02-01T09:36:49;25.35;;;13.63;;
76204;SDS011;64986;55.672;37.628;2023-02-01T09:39:14;25.92;;;13.05;;
76204;SDS011;64986;55.672;37.628;2023-02-01T09:46:40;22.40;;;11.02;;
76204;SDS011;64986;55.672;37.628;2023-02-01T09:49:09;18.13;;;9.63;;
76204;SDS011;64986;55.672;37.628;2023-02-01T09:51:49;27.55;;;14.13;;
76204;SDS011;64986;55.672;37.628;2023-02-01T09:54:24;22.40;;;12.73;;
76204;SDS011;64986;55.672;37.628;2023-02-01T09:56:56;27.63;;;13.57;;
76204;SDS011;64986;55.672;37.628;2023-02-01T09:59:26;20.55;;;11.57;;
76204;SDS011;64986;55.672;37.628;2023-02-01T10:02:03;26.27;;;15.10;;
76204;SDS011;64986;55.672;37.628;2023-02-01T10:04:35;18.02;;;9.95;;
76204;SDS011;64986;55.672;37.628;2023-02-01T10:24:02;21.20;;;12.20;;
76204;SDS011;64986;55.672;37.628;2023-02-01T10:26:36;20.52;;;10.65;;
76204;SDS011;64986;55.672;37.628;2023-02-01T10:29:11;21.40;;;11.25;;
76204;SDS011;64986;55.672;37.628;2023-02-01T10:31:43;23.15;;;13.23;;
76204;SDS011;64986;55.672;37.628;2023-02-01T10:34:23;23.65;;;13.05;;
76204;SDS011;64986;55.672;37.628;2023-02-01T10:36:55;24.25;;;11.82;;
76204;SDS011;64986;55.672;37.628;2023-02-01T10:39:25;23.35;;;13.48;;
76204;SDS011;64986;55.672;37.628;2023-02-01T10:41:51;16.17;;;9.70;;
76204;SDS011;64986;55.672;37.628;2023-02-01T10:44:18;27.67;;;12.18;;
76204;SDS011;64986;55.672;37.628;2023-02-01T10:46:47;25.85;;;11.82;;
76204;SDS011;64986;55.672;37.628;2023-02-01T10:49:18;21.95;;;12.70;;
76204;SDS011;64986;55.672;37.628;2023-02-01T10:54:41;20.48;;;12.43;;
76204;SDS011;64986;55.672;37.628;2023-02-01T10:57:19;23.08;;;12.55;;
76204;SDS011;64986;55.672;37.628;2023-02-01T10:59:49;24.02;;;12.77;;
76204;SDS011;64986;55.672;37.628;2023-02-01T11:02:26;23.95;;;11.88;;
76204;SDS011;64986;55.672;37.628;2023-02-01T11:05:33;19.98;;;11.43;;
76204;SDS011;64986;55.672;37.628;2023-02-01T11:07:52;25.95;;;14.70;;
76204;SDS011;64986;55.672;37.628;2023-02-01T11:10:34;24.50;;;13.65;;
76204;SDS011;64986;55.672;37.628;2023-02-01T11:13:08;27.48;;;15.75;;
76204;SDS011;64986;55.672;37.628;2023-02-01T11:15:44;24.42;;;13.38;;
76204;SDS011;64986;55.672;37.628;2023-02-01T11:18:18;24.40;;;13.82;;
76204;SDS011;64986;55.672;37.628;2023-02-01T11:20:46;26.63;;;12.68;;
76204;SDS011;64986;55.672;37.628;2023-02-01T11:23:23;20.90;;;11.30;;
76204;SDS011;64986;55.672;37.628;2023-02-01T11:26:01;21.45;;;10.50;;
76204;SDS011;64986;55.672;37.628;2023-02-01T11:28:34;26.00;;;13.18;;
76204;SDS011;64986;55.672;37.628;2023-02-01T11:31:06;23.35;;;12.63;;
76204;SDS011;64986;55.672;37.628;2023-02-01T11:33:37;25.20;;;13.70;;
76204;SDS011;64986;55.672;37.628;2023-02-01T11:36:13;19.10;;;10.20;;
76204;SDS011;64986;55.672;37.628;2023-02-01T11:38:45;23.33;;;13.65;;
76204;SDS011;64986;55.672;37.628;2023-02-01T11:43:54;27.42;;;14.63;;
76204;SDS011;64986;55.672;37.628;2023-02-01T11:46:27;20.35;;;11.20;;
76204;SDS011;64986;55.672;37.628;2023-02-01T11:48:55;20.52;;;12.48;;
76204;SDS011;64986;55.672;37.628;2023-02-01T11:57:36;23.40;;;12.77;;
76204;SDS011;64986;55.672;37.628;2023-02-01T12:16:19;20.92;;;11.73;;
76204;SDS011;64986;55.672;37.628;2023-02-01T12:21:32;17.30;;;10.88;;
76204;SDS011;64986;55.672;37.628;2023-02-01T12:29:55;19.55;;;11.05;;
76204;SDS011;64986;55.672;37.628;2023-02-01T12:49:21;15.93;;;9.18;;
76204;SDS011;64986;55.672;37.628;2023-02-01T12:51:54;16.27;;;8.98;;
76204;SDS011;64986;55.672;37.628;2023-02-01T12:54:34;16.95;;;10.00;;
76204;SDS011;64986;55.672;37.628;2023-02-01T12:57:06;15.63;;;8.80;;
76204;SDS011;64986;55.672;37.628;2023-02-01T12:59:38;18.30;;;9.02;;
76204;SDS011;64986;55.672;37.628;2023-02-01T13:07:34;14.63;;;8.38;;
76204;SDS011;64986;55.672;37.628;2023-02-01T13:15:26;12.93;;;7.90;;
76204;SDS011;64986;55.672;37.628;2023-02-01T13:17:54;14.05;;;7.10;;
76204;SDS011;64986;55.672;37.628;2023-02-01T13:22:54;13.18;;;6.80;;
76204;SDS011;64986;55.672;37.628;2023-02-01T13:25:28;15.00;;;7.93;;
76204;SDS011;64986;55.672;37.628;2023-02-01T13:28:03;15.02;;;8.05;;
76204;SDS011;64986;55.672;37.628;2023-02-01T13:30:57;14.95;;;6.95;;
76204;SDS011;64986;55.672;37.628;2023-02-01T13:42:20;12.27;;;6.18;;
76204;SDS011;64986;55.672;37.628;2023-02-01T13:44:54;15.80;;;8.27;;
76204;SDS011;64986;55.672;37.628;2023-02-01T13:50:09;14.13;;;8.23;;
76204;SDS011;64986;55.672;37.628;2023-02-01T13:52:44;17.45;;;8.75;;
76204;SDS011;64986;55.672;37.628;2023-02-01T13:57:45;12.93;;;6.93;;
76204;SDS011;64986;55.672;37.628;2023-02-01T14:00:30;16.23;;;7.80;;
76204;SDS011;64986;55.672;37.628;2023-02-01T14:16:11;15.82;;;8.38;;
76204;SDS011;64986;55.672;37.628;2023-02-01T14:23:48;16.73;;;9.68;;
76204;SDS011;64986;55.672;37.628;2023-02-01T14:26:23;21.40;;;10.10;;
76204;SDS011;64986;55.672;37.628;2023-02-01T14:36:50;20.58;;;10.18;;
76204;SDS011;64986;55.672;37.628;2023-02-01T14:39:31;15.82;;;9.10;;
76204;SDS011;64986;55.672;37.628;2023-02-01T14:42:03;17.40;;;9.20;;
76204;SDS011;64986;55.672;37.628;2023-02-01T14:44:38;18.05;;;8.77;;
76204;SDS011;64986;55.672;37.628;2023-02-01T14:47:08;17.42;;;8.35;;
76204;SDS011;64986;55.672;37.628;2023-02-01T14:52:13;21.05;;;9.45;;
76204;SDS011;64986;55.672;37.628;2023-02-01T14:54:49;16.33;;;7.53;;
76204;SDS011;64986;55.672;37.628;2023-02-01T14:57:20;16.65;;;8.52;;
76204;SDS011;64986;55.672;37.628;2023-02-01T14:59:48;16.63;;;9.43;;
76204;SDS011;64986;55.672;37.628;2023-02-01T15:02:21;17.85;;;9.68;;
76204;SDS011;64986;55.672;37.628;2023-02-01T15:04:56;18.27;;;9.45;;
76204;SDS011;64986;55.672;37.628;2023-02-01T15:07:23;15.80;;;8.48;;
76204;SDS011;64986;55.672;37.628;2023-02-01T15:09:51;17.95;;;9.23;;
76204;SDS011;64986;55.672;37.628;2023-02-01T15:12:22;19.88;;;10.13;;
76204;SDS011;64986;55.672;37.628;2023-02-01T15:17:38;21.35;;;11.02;;
76204;SDS011;64986;55.672;37.628;2023-02-01T15:20:12;21.08;;;10.57;;
76204;SDS011;64986;55.672;37.628;2023-02-01T15:22:40;19.35;;;11.73;;
76204;SDS011;64986;55.672;37.628;2023-02-01T15:25:49;19.38;;;9.90;;
76204;SDS011;64986;55.672;37.628;2023-02-01T15:27:57;22.98;;;10.27;;
76204;SDS011;64986;55.672;37.628;2023-02-01T15:30:24;18.95;;;9.40;;
76204;SDS011;64986;55.672;37.628;2023-02-01T15:32:52;26.23;;;11.98;;
76204;SDS011;64986;55.672;37.628;2023-02-01T15:38:19;19.27;;;10.55;;
76204;SDS011;64986;55.672;37.628;2023-02-01T15:41:01;19.40;;;11.10;;
76204;SDS011;64986;55.672;37.628;2023-02-01T15:43:30;19.42;;;10.43;;
76204;SDS011;64986;55.672;37.628;2023-02-01T15:45:59;20.23;;;10.93;;
76204;SDS011;64986;55.672;37.628;2023-02-01T15:48:27;20.67;;;10.80;;
76204;SDS011;64986;55.672;37.628;2023-02-01T15:50:59;19.77;;;11.02;;
76204;SDS011;64986;55.672;37.628;2023-02-01T15:53:25;20.83;;;11.10;;
76204;SDS011;64986;55.672;37.628;2023-02-01T15:55:57;19.38;;;10.38;;
76204;SDS011;64986;55.672;37.628;2023-02-01T15:58:25;20.00;;;9.68;;
76204;SDS011;64986;55.672;37.628;2023-02-01T16:06:10;23.33;;;11.75;;
76204;SDS011;64986;55.672;37.628;2023-02-01T16:08:49;20.17;;;11.40;;
76204;SDS011;64986;55.672;37.628;2023-02-01T16:13:52;22.00;;;9.90;;
76204;SDS011;64986;55.672;37.628;2023-02-01T16:16:18;23.15;;;11.23;;
76204;SDS011;64986;55.672;37.628;2023-02-01T16:18:43;18.08;;;10.52;;
76204;SDS011;64986;55.672;37.628;2023-02-01T16:21:10;23.33;;;11.60;;
76204;SDS011;64986;55.672;37.628;2023-02-01T16:23:36;22.80;;;11.38;;
76204;SDS011;64986;55.672;37.628;2023-02-01T16:26:02;25.98;;;12.85;;
76204;SDS011;64986;55.672;37.628;2023-02-01T16:28:29;21.55;;;11.10;;
76204;SDS011;64986;55.672;37.628;2023-02-01T16:30:54;19.55;;;10.65;;
76204;SDS011;64986;55.672;37.628;2023-02-01T16:33:21;19.33;;;10.90;;
76204;SDS011;64986;55.672;37.628;2023-02-01T16:35:48;21.40;;;11.43;;
76204;SDS011;64986;55.672;37.628;2023-02-01T16:38:16;23.60;;;12.13;;
76204;SDS011;64986;55.672;37.628;2023-02-01T16:40:45;21.70;;;11.35;;
76204;SDS011;64986;55.672;37.628;2023-02-01T16:43:21;23.73;;;12.43;;
76204;SDS011;64986;55.672;37.628;2023-02-01T16:45:49;24.02;;;11.73;;
76204;SDS011;64986;55.672;37.628;2023-02-01T16:48:23;16.83;;;8.43;;
76204;SDS011;64986;55.672;37.628;2023-02-01T16:50:52;21.17;;;8.83;;
76204;SDS011;64986;55.672;37.628;2023-02-01T16:53:21;19.48;;;10.55;;
76204;SDS011;64986;55.672;37.628;2023-02-01T16:55:48;18.63;;;10.43;;
76204;SDS011;64986;55.672;37.628;2023-02-01T16:58:18;17.95;;;9.43;;
76204;SDS011;64986;55.672;37.628;2023-02-01T17:00:45;21.83;;;9.63;;
76204;SDS011;64986;55.672;37.628;2023-02-01T17:03:11;13.32;;;7.70;;
76204;SDS011;64986;55.672;37.628;2023-02-01T17:05:41;16.30;;;8.95;;
76204;SDS011;64986;55.672;37.628;2023-02-01T17:08:09;16.75;;;8.93;;
76204;SDS011;64986;55.672;37.628;2023-02-01T17:10:39;17.02;;;9.60;;
76204;SDS011;64986;55.672;37.628;2023-02-01T17:13:04;19.40;;;10.43;;
76204;SDS011;64986;55.672;37.628;2023-02-01T17:15:32;21.73;;;9.77;;
76204;SDS011;64986;55.672;37.628;2023-02-01T17:17:59;15.18;;;8.25;;
76204;SDS011;64986;55.672;37.628;2023-02-01T17:20:26;20.52;;;10.23;;
76204;SDS011;64986;55.672;37.628;2023-02-01T17:22:56;18.85;;;9.95;;
76204;SDS011;64986;55.672;37.628;2023-02-01T17:25:21;18.20;;;10.55;;
76204;SDS011;64986;55.672;37.628;2023-02-01T17:27:48;19.10;;;9.90;;